createdAt,value
2023-02-03T00:00:09.948Z,8.57
2023-02-03T00:02:37.474Z,7.47
2023-02-03T00:05:04.946Z,8.87
2023-02-03T00:07:32.670Z,8.60
2023-02-03T00:09:59.859Z,7.93
2023-02-03T00:12:27.117Z,8.37
2023-02-03T00:14:54.425Z,8.30
2023-02-03T00:17:21.787Z,7.03
2023-02-03T00:19:50.115Z,7.43
2023-02-03T00:22:17.818Z,7.13
2023-02-03T00:24:45.038Z,8.17
2023-02-03T00:27:12.461Z,7.50
2023-02-03T00:29:39.695Z,8.43
2023-02-03T00:32:07.050Z,8.50
2023-02-03T00:34:34.345Z,7.97
2023-02-03T00:37:01.783Z,9.50
2023-02-03T00:39:29.193Z,9.53
2023-02-03T00:41:56.447Z,8.27
2023-02-03T00:44:23.717Z,10.13
2023-02-03T00:46:51.036Z,11.43
2023-02-03T00:49:18.399Z,14.13
2023-02-03T00:51:45.606Z,14.17
2023-02-03T00:54:13.680Z,16.83
2023-02-03T00:56:41.716Z,18.03
2023-02-03T00:59:08.996Z,16.70
2023-02-03T01:01:36.605Z,17.53
2023-02-03T01:04:04.348Z,15.07
2023-02-03T01:06:32.073Z,13.57
2023-02-03T01:08:59.692Z,12.47
2023-02-03T01:11:27.968Z,12.13
2023-02-03T01:13:56.282Z,11.97
2023-02-03T01:16:24.815Z,14.50
2023-02-03T01:18:52.872Z,15.13
2023-02-03T01:21:21.545Z,14.00
2023-02-03T01:23:49.137Z,12.77
2023-02-03T01:26:17.734Z,11.13
2023-02-03T01:28:45.355Z,10.47
2023-02-03T01:31:14.151Z,9.03
2023-02-03T01:33:41.767Z,11.23
2023-02-03T01:36:10.126Z,10.70
2023-02-03T01:38:37.995Z,11.07
2023-02-03T01:41:06.123Z,12.00
2023-02-03T01:43:35.011Z,11.53
2023-02-03T01:46:04.069Z,11.63
2023-02-03T01:48:32.872Z,9.60
2023-02-03T01:51:03.084Z,8.60
2023-02-03T01:53:30.469Z,9.40
2023-02-03T01:55:58.087Z,9.97
2023-02-03T01:58:30.844Z,10.37
2023-02-03T02:00:59.130Z,9.77
2023-02-03T02:03:30.818Z,9.70
2023-02-03T02:06:01.447Z,11.27
2023-02-03T02:08:29.347Z,9.80
2023-02-03T02:10:56.774Z,11.00
2023-02-03T02:13:24.253Z,9.53
2023-02-03T02:16:07.121Z,9.93
2023-02-03T02:18:53.163Z,10.40
2023-02-03T02:21:20.403Z,9.30
2023-02-03T02:24:19.785Z,9.63
2023-02-03T02:27:06.105Z,9.83
2023-02-03T02:29:36.461Z,9.77
2023-02-03T02:32:10.370Z,8.90
2023-02-03T02:34:40.613Z,9.30
2023-02-03T02:37:26.394Z,10.03
2023-02-03T02:39:59.252Z,10.10
2023-02-03T02:42:36.072Z,8.63
2023-02-03T02:45:08.876Z,10.03
2023-02-03T02:47:36.109Z,10.17
2023-02-03T02:50:09.842Z,9.03
2023-02-03T02:52:38.991Z,7.80
2023-02-03T02:55:08.809Z,7.47
2023-02-03T02:57:37.060Z,7.30
2023-02-03T03:00:05.601Z,7.00
2023-02-03T03:02:36.261Z,6.43
2023-02-03T03:05:05.690Z,6.73
2023-02-03T03:07:35.520Z,6.33
2023-02-03T03:10:07.310Z,6.40
2023-02-03T03:12:39.855Z,7.00
2023-02-03T03:15:12.986Z,6.67
2023-02-03T03:17:46.776Z,8.17
2023-02-03T03:20:16.739Z,7.07
2023-02-03T03:22:49.103Z,7.80
2023-02-03T03:25:21.360Z,7.30
2023-02-03T03:27:54.378Z,8.10
2023-02-03T03:30:24.004Z,8.07
2023-02-03T03:32:51.658Z,9.80
2023-02-03T03:35:19.785Z,9.90
2023-02-03T03:37:46.944Z,10.73
2023-02-03T03:40:19.709Z,11.53
2023-02-03T03:42:51.910Z,8.93
2023-02-03T03:45:29.826Z,8.17
2023-02-03T03:47:58.639Z,8.13
2023-02-03T03:50:31.283Z,7.53
2023-02-03T03:53:00.241Z,7.30
2023-02-03T03:55:29.766Z,7.87
2023-02-03T03:58:02.744Z,10.00
2023-02-03T04:00:31.467Z,11.07
2023-02-03T04:03:01.001Z,10.13
2023-02-03T04:05:28.773Z,11.90
2023-02-03T04:07:56.010Z,11.47
2023-02-03T04:10:28.381Z,10.17
2023-02-03T04:12:55.789Z,8.77
2023-02-03T04:15:23.124Z,8.47
2023-02-03T04:17:50.829Z,8.67
2023-02-03T04:20:18.439Z,9.27
2023-02-03T04:22:45.611Z,8.87
2023-02-03T04:25:12.854Z,8.30
2023-02-03T04:27:40.127Z,7.97
2023-02-03T04:30:08.198Z,7.50
2023-02-03T04:32:35.732Z,8.60
2023-02-03T04:35:04.112Z,8.20
2023-02-03T04:37:31.348Z,8.00
2023-02-03T04:39:58.599Z,9.37
2023-02-03T04:42:26.342Z,7.97
2023-02-03T04:44:53.677Z,7.60
2023-02-03T04:47:21.529Z,9.17
2023-02-03T04:49:48.740Z,8.80
2023-02-03T04:52:16.250Z,7.80
2023-02-03T04:54:43.539Z,8.70
2023-02-03T04:57:10.799Z,7.07
2023-02-03T04:59:37.971Z,7.83
2023-02-03T05:02:05.657Z,7.00
2023-02-03T05:04:33.203Z,8.43
2023-02-03T05:07:00.464Z,6.93
2023-02-03T05:09:27.724Z,6.43
2023-02-03T05:11:55.463Z,8.07
2023-02-03T05:14:22.778Z,7.23
2023-02-03T05:16:50.087Z,7.47
2023-02-03T05:19:17.537Z,7.77
2023-02-03T05:21:44.773Z,8.20
2023-02-03T05:24:12.024Z,8.13
2023-02-03T05:26:39.319Z,8.60
2023-02-03T05:29:06.614Z,7.73
2023-02-03T05:31:34.746Z,8.20
2023-02-03T05:34:02.293Z,8.37
2023-02-03T05:36:29.486Z,8.50
2023-02-03T05:38:56.713Z,8.73
2023-02-03T05:41:42.864Z,8.50
2023-02-03T05:44:10.215Z,9.63
2023-02-03T05:46:37.396Z,8.60
2023-02-03T05:49:04.646Z,9.07
2023-02-03T05:51:31.966Z,8.23
2023-02-03T05:53:59.204Z,8.87
2023-02-03T05:56:26.650Z,9.53
2023-02-03T05:58:53.933Z,9.30
2023-02-03T06:01:21.152Z,9.20
2023-02-03T06:03:49.322Z,8.23
2023-02-03T06:06:16.748Z,9.10
2023-02-03T06:08:44.465Z,9.23
2023-02-03T06:11:12.017Z,9.73
2023-02-03T06:13:39.835Z,10.73
2023-02-03T06:16:07.144Z,9.47
2023-02-03T06:18:34.324Z,10.30
2023-02-03T06:21:01.771Z,11.83
2023-02-03T06:23:29.061Z,10.70
2023-02-03T06:25:56.368Z,12.07
2023-02-03T06:28:23.695Z,14.50
2023-02-03T06:30:53.215Z,17.63
2023-02-03T06:33:21.106Z,13.63
2023-02-03T06:35:48.316Z,14.77
2023-02-03T06:38:15.590Z,14.70
2023-02-03T06:40:42.870Z,15.00
2023-02-03T06:43:10.150Z,14.87
2023-02-03T06:45:37.695Z,13.30
2023-02-03T06:48:04.986Z,14.57
2023-02-03T06:50:32.402Z,13.47
2023-02-03T06:52:59.619Z,14.13
2023-02-03T06:55:27.064Z,15.73
2023-02-03T06:57:54.315Z,16.53
2023-02-03T07:00:23.101Z,16.03
2023-02-03T07:02:57.559Z,17.57
2023-02-03T07:05:25.219Z,16.70
2023-02-03T07:07:53.252Z,18.27
2023-02-03T07:10:20.846Z,16.37
2023-02-03T07:12:48.121Z,15.30
2023-02-03T07:15:15.459Z,16.70
2023-02-03T07:17:42.666Z,16.77
2023-02-03T07:20:10.281Z,17.60
2023-02-03T07:22:38.853Z,15.67
2023-02-03T07:25:06.413Z,14.47
2023-02-03T07:27:33.667Z,16.40
2023-02-03T07:30:01.058Z,14.83
2023-02-03T07:32:28.247Z,16.10
2023-02-03T07:34:55.516Z,15.33
2023-02-03T07:37:22.838Z,15.20
2023-02-03T07:39:50.094Z,17.63
2023-02-03T07:42:17.351Z,16.37
2023-02-03T07:44:44.588Z,19.03
2023-02-03T07:47:12.670Z,17.47
2023-02-03T07:49:39.979Z,14.37
2023-02-03T07:52:07.366Z,14.43
2023-02-03T07:54:34.565Z,13.83
2023-02-03T07:57:02.372Z,14.30
2023-02-03T07:59:29.609Z,13.27
2023-02-03T08:01:56.949Z,12.37
2023-02-03T08:04:24.496Z,11.57
2023-02-03T08:06:52.115Z,11.40
2023-02-03T08:09:19.310Z,10.27
2023-02-03T08:11:46.545Z,10.77
2023-02-03T08:14:13.775Z,11.57
2023-02-03T08:16:41.132Z,11.63
2023-02-03T08:19:08.443Z,16.40
2023-02-03T08:21:35.873Z,10.93
2023-02-03T08:24:03.060Z,10.57
2023-02-03T08:26:30.257Z,12.67
2023-02-03T08:28:57.506Z,10.20
2023-02-03T08:31:24.791Z,11.43
2023-02-03T08:33:52.067Z,10.03
2023-02-03T08:36:19.404Z,10.07
2023-02-03T08:38:46.602Z,10.87
2023-02-03T08:41:15.515Z,10.03
2023-02-03T08:43:43.240Z,10.83
2023-02-03T08:46:11.324Z,10.80
2023-02-03T08:48:38.759Z,12.23
2023-02-03T08:51:13.623Z,11.17
2023-02-03T08:53:40.879Z,10.77
2023-02-03T08:56:09.269Z,11.03
2023-02-03T08:58:37.231Z,10.47
2023-02-03T09:01:11.820Z,9.57
2023-02-03T09:03:39.677Z,10.10
2023-02-03T09:06:08.089Z,10.57
2023-02-03T09:08:35.441Z,11.03
2023-02-03T09:11:02.702Z,10.07
2023-02-03T09:13:29.955Z,10.83
2023-02-03T09:16:00.637Z,8.97
2023-02-03T09:18:27.845Z,9.10
2023-02-03T09:21:01.563Z,10.13
2023-02-03T09:23:29.001Z,10.20
2023-02-03T09:25:56.194Z,10.67
2023-02-03T09:28:23.505Z,10.60
2023-02-03T09:30:50.832Z,10.30
2023-02-03T09:33:18.072Z,10.13
2023-02-03T09:35:52.556Z,10.80
2023-02-03T09:38:20.111Z,10.73
2023-02-03T09:40:52.263Z,11.10
2023-02-03T09:43:19.479Z,10.70
2023-02-03T09:45:46.709Z,10.60
2023-02-03T09:48:17.084Z,10.93
2023-02-03T09:50:45.101Z,11.00
2023-02-03T09:53:21.403Z,11.07
2023-02-03T09:55:49.037Z,11.73
2023-02-03T09:58:23.477Z,11.93
2023-02-03T10:00:52.172Z,10.57
2023-02-03T10:03:25.519Z,12.20
2023-02-03T10:05:55.745Z,12.87
2023-02-03T10:08:30.664Z,13.53
2023-02-03T10:11:16.607Z,13.43
2023-02-03T10:14:03.775Z,12.97
2023-02-03T10:16:42.739Z,15.40
2023-02-03T10:19:16.553Z,14.33
2023-02-03T10:21:45.668Z,14.23
2023-02-03T10:24:16.055Z,13.73
2023-02-03T10:26:43.441Z,12.90
2023-02-03T10:29:21.448Z,13.93
2023-02-03T10:31:49.356Z,13.57
2023-02-03T10:34:25.734Z,12.50
2023-02-03T10:36:57.063Z,13.03
2023-02-03T10:39:24.222Z,11.50
2023-02-03T10:41:51.747Z,10.00
2023-02-03T10:44:19.010Z,9.97
2023-02-03T10:46:46.227Z,10.13
2023-02-03T10:49:16.454Z,11.20
2023-02-03T10:51:51.531Z,9.20
2023-02-03T10:54:32.077Z,11.00
2023-02-03T10:57:03.730Z,14.20
2023-02-03T10:59:32.262Z,13.07
2023-02-03T11:02:00.022Z,10.50
2023-02-03T11:04:32.507Z,10.97
2023-02-03T11:07:03.800Z,11.20
2023-02-03T11:09:36.031Z,11.53
2023-02-03T11:12:13.133Z,11.93
2023-02-03T11:14:41.637Z,12.43
2023-02-03T11:17:09.600Z,12.63
2023-02-03T11:19:39.554Z,13.07
2023-02-03T11:22:07.139Z,12.10
2023-02-03T11:24:38.155Z,12.30
2023-02-03T11:27:07.315Z,11.03
2023-02-03T11:29:41.683Z,11.13
2023-02-03T11:32:29.409Z,11.30
2023-02-03T11:35:24.240Z,10.37
2023-02-03T11:37:56.256Z,10.10
2023-02-03T11:40:40.870Z,8.53
2023-02-03T11:43:18.156Z,8.47
2023-02-03T11:45:45.844Z,7.90
2023-02-03T11:48:32.143Z,7.03
2023-02-03T11:51:14.843Z,7.80
2023-02-03T11:53:56.565Z,6.67
2023-02-03T11:56:25.654Z,6.53
2023-02-03T11:59:00.610Z,6.60
2023-02-03T12:01:47.018Z,7.47
2023-02-03T12:04:17.315Z,6.17
2023-02-03T12:06:44.724Z,6.97
2023-02-03T12:09:17.895Z,7.50
2023-02-03T12:12:03.778Z,6.53
2023-02-03T12:14:46.320Z,6.53
2023-02-03T12:17:29.205Z,6.27
2023-02-03T12:20:14.807Z,5.70
2023-02-03T12:23:00.570Z,5.10
2023-02-03T12:25:34.353Z,5.00
2023-02-03T12:28:31.357Z,3.87
2023-02-03T12:31:12.972Z,4.33
2023-02-03T12:33:44.775Z,3.73
2023-02-03T12:36:33.928Z,3.87
2023-02-03T12:39:12.628Z,3.13
2023-02-03T12:41:43.445Z,2.93
2023-02-03T12:44:18.033Z,3.70
2023-02-03T12:46:50.121Z,3.00
2023-02-03T12:49:26.821Z,3.07
2023-02-03T12:52:00.798Z,2.70
2023-02-03T12:54:40.027Z,2.50
2023-02-03T12:57:22.616Z,3.00
2023-02-03T12:59:57.750Z,2.33
2023-02-03T13:02:30.366Z,2.90
2023-02-03T13:05:00.596Z,2.43
2023-02-03T13:07:37.156Z,2.40
2023-02-03T13:10:07.323Z,2.10
2023-02-03T13:12:37.689Z,2.20
2023-02-03T13:15:08.513Z,2.10
2023-02-03T13:17:40.585Z,1.63
2023-02-03T13:20:13.832Z,1.83
2023-02-03T13:22:41.076Z,2.07
2023-02-03T13:25:08.542Z,1.90
2023-02-03T13:28:02.177Z,1.97
2023-02-03T13:30:32.441Z,2.37
2023-02-03T13:33:02.759Z,2.50
2023-02-03T13:35:34.838Z,2.33
2023-02-03T13:38:02.378Z,1.90
2023-02-03T13:40:39.279Z,2.93
2023-02-03T13:43:11.372Z,2.90
2023-02-03T13:45:47.858Z,2.50
2023-02-03T13:48:15.080Z,2.43
2023-02-03T13:50:42.476Z,1.40
2023-02-03T13:53:21.325Z,1.50
2023-02-03T13:55:54.354Z,1.77
2023-02-03T13:58:23.403Z,1.97
2023-02-03T14:00:50.630Z,1.60
2023-02-03T14:03:19.749Z,1.63
2023-02-03T14:05:49.684Z,1.07
2023-02-03T14:08:26.174Z,1.00
2023-02-03T14:11:12.240Z,1.20
2023-02-03T14:13:39.469Z,1.67
2023-02-03T14:16:24.730Z,1.50
2023-02-03T14:18:52.379Z,2.13
2023-02-03T14:21:24.443Z,2.57
2023-02-03T14:23:55.896Z,2.90
2023-02-03T14:26:25.623Z,3.20
2023-02-03T14:28:54.041Z,2.93
2023-02-03T14:31:25.237Z,2.80
2023-02-03T14:34:00.025Z,2.93
2023-02-03T14:36:27.333Z,3.23
2023-02-03T14:38:56.164Z,3.30
2023-02-03T14:41:28.207Z,2.67
2023-02-03T14:44:02.742Z,3.40
2023-02-03T14:46:49.007Z,3.70
2023-02-03T14:49:16.167Z,4.07
2023-02-03T14:51:55.884Z,4.37
2023-02-03T14:54:33.608Z,4.10
2023-02-03T14:57:19.915Z,4.07
2023-02-03T14:59:55.362Z,6.33
2023-02-03T15:02:25.378Z,4.57
2023-02-03T15:04:53.663Z,8.73
2023-02-03T15:07:45.207Z,6.60
2023-02-03T15:10:30.672Z,5.70
2023-02-03T15:12:58.913Z,5.40
2023-02-03T15:15:28.014Z,5.17
2023-02-03T15:17:56.846Z,5.10
2023-02-03T15:20:30.232Z,4.57
2023-02-03T15:22:57.468Z,5.17
2023-02-03T15:25:26.158Z,5.17
2023-02-03T15:27:53.852Z,4.50
2023-02-03T15:30:24.127Z,4.27
2023-02-03T15:33:03.244Z,3.63
2023-02-03T15:35:32.067Z,3.70
2023-02-03T15:38:07.631Z,3.63
2023-02-03T15:40:41.883Z,4.67
2023-02-03T15:43:13.224Z,3.30
2023-02-03T15:46:03.783Z,3.00
2023-02-03T15:48:51.302Z,3.13
2023-02-03T15:51:21.540Z,2.50
2023-02-03T15:53:58.378Z,2.80
2023-02-03T15:56:36.575Z,3.20
2023-02-03T15:59:03.971Z,3.20
2023-02-03T16:01:31.795Z,3.60
2023-02-03T16:04:00.135Z,3.60
2023-02-03T16:06:39.918Z,3.23
2023-02-03T16:09:08.126Z,3.53
2023-02-03T16:11:36.729Z,3.60
2023-02-03T16:14:06.830Z,3.70
2023-02-03T16:17:04.488Z,4.23
2023-02-03T16:19:38.110Z,4.20
2023-02-03T16:22:05.676Z,5.33
2023-02-03T16:24:32.986Z,9.07
2023-02-03T16:27:19.331Z,12.03
2023-02-03T16:30:05.575Z,6.30
2023-02-03T16:32:51.494Z,6.67
2023-02-03T16:35:37.504Z,4.80
2023-02-03T16:38:27.589Z,4.17
2023-02-03T16:41:13.351Z,5.03
2023-02-03T16:43:59.358Z,4.30
2023-02-03T16:46:45.524Z,4.97
2023-02-03T16:49:31.280Z,4.23
2023-02-03T16:51:58.446Z,3.23
2023-02-03T16:54:28.238Z,3.63
2023-02-03T16:56:58.517Z,4.27
2023-02-03T16:59:26.119Z,2.80
2023-02-03T17:01:53.497Z,4.40
2023-02-03T17:04:20.713Z,2.80
2023-02-03T17:06:51.209Z,3.40
2023-02-03T17:09:24.872Z,3.27
2023-02-03T17:11:52.077Z,3.83
2023-02-03T17:14:19.315Z,4.97
2023-02-03T17:16:46.775Z,3.07
2023-02-03T17:19:13.989Z,3.37
2023-02-03T17:21:41.198Z,3.43
2023-02-03T17:24:08.421Z,4.30
2023-02-03T17:26:35.680Z,3.27
2023-02-03T17:29:03.597Z,2.63
2023-02-03T17:31:31.183Z,3.80
2023-02-03T17:33:58.798Z,3.67
2023-02-03T17:36:26.164Z,3.37
2023-02-03T17:55:26.479Z,2.40
2023-02-03T17:57:53.959Z,3.10
2023-02-03T18:00:21.235Z,2.47
2023-02-03T18:02:51.997Z,2.40
2023-02-03T18:05:19.216Z,3.30
2023-02-03T18:10:18.612Z,2.30
2023-02-03T18:12:45.827Z,2.30
2023-02-03T18:15:13.558Z,2.90
2023-02-03T18:17:41.408Z,2.80
2023-02-03T18:20:08.933Z,2.90
2023-02-03T18:22:36.187Z,3.50
2023-02-03T18:25:03.415Z,3.77
2023-02-03T18:27:30.584Z,3.40
2023-02-03T18:29:57.782Z,3.47
2023-02-03T18:32:24.988Z,5.47
2023-02-03T18:34:52.258Z,3.90
2023-02-03T18:37:19.454Z,2.67
2023-02-03T18:39:47.899Z,3.27
2023-02-03T18:42:15.231Z,2.67
2023-02-03T18:44:44.418Z,2.30
2023-02-03T18:47:11.628Z,3.17
2023-02-03T18:49:39.647Z,3.33
2023-02-03T18:52:07.353Z,2.90
2023-02-03T18:54:34.597Z,3.13
2023-02-03T18:57:03.054Z,3.30
2023-02-03T18:59:30.736Z,2.60
2023-02-03T19:01:58.229Z,2.17
2023-02-03T19:04:25.385Z,2.40
2023-02-03T19:06:52.796Z,2.10
2023-02-03T19:09:22.242Z,2.20
2023-02-03T19:11:49.771Z,2.43
2023-02-03T19:14:17.336Z,2.07
2023-02-03T19:16:44.656Z,1.73
2023-02-03T19:19:14.092Z,2.07
2023-02-03T19:21:41.379Z,2.30
2023-02-03T19:24:08.750Z,2.83
2023-02-03T19:26:36.025Z,3.50
2023-02-03T19:29:03.314Z,6.33
2023-02-03T19:31:30.727Z,6.97
2023-02-03T19:33:59.916Z,9.70
2023-02-03T19:36:30.817Z,9.80
2023-02-03T19:38:58.234Z,9.00
2023-02-03T19:41:26.315Z,9.27
2023-02-03T19:43:53.626Z,9.03
2023-02-03T19:46:21.963Z,5.77
2023-02-03T19:48:49.515Z,2.83
2023-02-03T19:51:17.464Z,2.67
2023-02-03T19:53:44.883Z,3.20
2023-02-03T19:56:12.436Z,2.50
2023-02-03T19:58:39.848Z,2.73
2023-02-03T20:01:07.670Z,3.67
2023-02-03T20:03:35.083Z,4.20
2023-02-03T20:06:02.340Z,5.33
2023-02-03T20:08:29.572Z,3.80
2023-02-03T20:10:56.885Z,2.70
2023-02-03T20:13:24.404Z,2.33
2023-02-03T20:15:52.237Z,3.30
2023-02-03T20:18:19.508Z,2.30
2023-02-03T20:20:54.349Z,1.80
2023-02-03T20:23:21.880Z,2.13
2023-02-03T20:25:50.348Z,1.73
2023-02-03T20:28:18.062Z,1.90
2023-02-03T20:30:45.337Z,2.10
2023-02-03T20:33:13.005Z,2.40
2023-02-03T20:35:40.954Z,2.37
2023-02-03T20:38:08.242Z,2.23
2023-02-03T20:40:35.691Z,1.93
2023-02-03T20:43:07.681Z,2.10
2023-02-03T20:45:34.896Z,2.30
2023-02-03T20:48:02.343Z,2.27
2023-02-03T20:50:41.553Z,2.47
2023-02-03T20:53:13.101Z,2.97
2023-02-03T20:55:40.361Z,2.27
2023-02-03T20:58:26.809Z,1.90
2023-02-03T21:00:57.430Z,2.10
2023-02-03T21:03:44.025Z,1.93
2023-02-03T21:06:18.773Z,1.40
2023-02-03T21:08:47.114Z,1.70
2023-02-03T21:11:15.565Z,1.40
2023-02-03T21:13:45.373Z,1.00
2023-02-03T21:16:19.080Z,1.40
2023-02-03T21:18:50.369Z,1.37
2023-02-03T21:21:25.083Z,1.10
2023-02-03T21:23:52.924Z,1.70
2023-02-03T21:26:21.546Z,1.53
2023-02-03T21:28:53.200Z,1.20
2023-02-03T21:31:25.249Z,1.27
2023-02-03T21:33:53.864Z,1.27
2023-02-03T21:36:22.491Z,1.77
2023-02-03T21:38:50.804Z,1.10
2023-02-03T21:41:19.137Z,1.10
2023-02-03T21:43:47.189Z,0.90
2023-02-03T21:46:33.847Z,1.20
2023-02-03T21:49:02.190Z,1.23
2023-02-03T21:51:36.342Z,1.30
2023-02-03T21:54:16.008Z,1.23
2023-02-03T21:56:45.386Z,1.07
2023-02-03T21:59:23.112Z,0.87
2023-02-03T22:01:50.300Z,1.10
2023-02-03T22:04:17.465Z,1.33
2023-02-03T22:06:45.619Z,1.40
2023-02-03T22:09:13.917Z,1.47
2023-02-03T22:11:41.964Z,1.40
2023-02-03T22:14:09.440Z,1.60
2023-02-03T22:16:36.877Z,1.53
2023-02-03T22:19:04.068Z,1.90
2023-02-03T22:21:31.240Z,2.13
2023-02-03T22:23:58.876Z,1.80
2023-02-03T22:26:26.094Z,1.77
2023-02-03T22:28:53.320Z,1.63
2023-02-03T22:31:21.197Z,1.80
2023-02-03T22:33:48.684Z,1.83
2023-02-03T22:36:15.897Z,1.87
2023-02-03T22:38:43.437Z,1.97
2023-02-03T22:41:14.163Z,2.00
2023-02-03T22:43:41.542Z,1.60
2023-02-03T22:46:08.887Z,2.00
2023-02-03T22:48:36.244Z,1.90
2023-02-03T22:51:03.988Z,2.10
2023-02-03T22:53:31.426Z,1.83
2023-02-03T22:55:58.698Z,6.30
2023-02-03T22:58:25.839Z,2.23
2023-02-03T23:00:52.978Z,1.83
2023-02-03T23:03:20.243Z,2.67
2023-02-03T23:05:47.444Z,2.67
2023-02-03T23:08:14.670Z,2.40
2023-02-03T23:10:41.845Z,2.50
2023-02-03T23:13:09.112Z,2.47
2023-02-03T23:15:36.347Z,2.43
2023-02-03T23:18:03.853Z,2.60
2023-02-03T23:20:31.542Z,2.30
2023-02-03T23:22:58.911Z,2.47
2023-02-03T23:25:26.256Z,2.33
2023-02-03T23:27:53.626Z,4.73
2023-02-03T23:30:20.824Z,5.37
2023-02-03T23:32:48.017Z,8.93
2023-02-03T23:35:33.862Z,9.63
2023-02-03T23:38:01.119Z,10.07
2023-02-03T23:40:29.160Z,8.37
2023-02-03T23:42:56.859Z,10.03
2023-02-03T23:45:24.023Z,9.03
2023-02-03T23:47:51.297Z,9.50
2023-02-03T23:50:21.426Z,8.90
2023-02-03T23:52:48.960Z,9.90
2023-02-03T23:55:18.060Z,8.87
2023-02-03T23:57:45.832Z,8.70
